createdAt,value
2023-04-18T00:01:10.612Z,82.63
2023-04-18T00:03:04.581Z,82.70
2023-04-18T00:04:58.078Z,82.74
2023-04-18T00:06:53.655Z,82.67
2023-04-18T00:08:46.704Z,82.69
2023-04-18T00:10:39.649Z,82.77
2023-04-18T00:12:34.385Z,82.83
2023-04-18T00:14:30.274Z,82.79
2023-04-18T00:16:24.360Z,82.94
2023-04-18T00:18:17.229Z,82.99
2023-04-18T00:20:11.380Z,83.07
2023-04-18T00:22:04.308Z,83.13
2023-04-18T00:23:57.663Z,83.07
2023-04-18T00:25:50.629Z,83.20
2023-04-18T00:27:43.560Z,83.14
2023-04-18T00:29:36.511Z,83.37
2023-04-18T00:31:29.539Z,83.31
2023-04-18T00:33:23.837Z,83.35
2023-04-18T00:35:19.449Z,83.31
2023-04-18T00:37:12.921Z,83.37
2023-04-18T00:39:08.109Z,83.64
2023-04-18T00:41:01.057Z,83.52
2023-04-18T00:42:53.903Z,83.65
2023-04-18T00:44:46.748Z,83.65
2023-04-18T00:46:39.735Z,83.83
2023-04-18T00:48:32.950Z,83.87
2023-04-18T00:50:26.520Z,83.98
2023-04-18T00:52:20.179Z,84.17
2023-04-18T00:54:13.660Z,84.04
2023-04-18T00:56:07.713Z,84.25
2023-04-18T00:58:00.673Z,84.30
2023-04-18T00:59:53.719Z,84.40
2023-04-18T01:01:47.524Z,84.58
2023-04-18T01:03:41.116Z,84.62
2023-04-18T01:05:36.343Z,84.84
2023-04-18T01:07:33.501Z,84.68
2023-04-18T01:09:26.958Z,85.03
2023-04-18T01:11:20.513Z,84.99
2023-04-18T01:13:18.382Z,85.05
2023-04-18T01:15:12.050Z,85.20
2023-04-18T01:17:04.889Z,85.04
2023-04-18T01:18:57.695Z,85.15
2023-04-18T01:20:52.324Z,85.17
2023-04-18T01:22:46.295Z,85.04
2023-04-18T01:24:39.476Z,85.28
2023-04-18T01:26:32.293Z,85.23
2023-04-18T01:28:27.827Z,85.34
2023-04-18T01:30:22.588Z,85.44
2023-04-18T01:32:17.700Z,85.43
2023-04-18T01:34:11.733Z,85.77
2023-04-18T01:36:08.100Z,85.67
2023-04-18T01:38:01.346Z,85.50
2023-04-18T01:39:54.204Z,85.68
2023-04-18T01:41:47.144Z,85.62
2023-04-18T01:43:39.987Z,85.77
2023-04-18T01:45:32.933Z,85.79
2023-04-18T01:47:25.920Z,85.95
2023-04-18T01:49:18.836Z,86.00
2023-04-18T01:51:11.673Z,85.97
2023-04-18T01:53:04.931Z,86.14
2023-04-18T01:54:57.725Z,86.04
2023-04-18T01:56:50.827Z,86.23
2023-04-18T01:58:43.876Z,86.41
2023-04-18T02:00:38.516Z,86.58
2023-04-18T02:02:32.017Z,86.61
2023-04-18T02:04:25.285Z,86.74
2023-04-18T02:06:18.128Z,86.76
2023-04-18T02:08:11.898Z,86.83
2023-04-18T02:10:05.424Z,86.93
2023-04-18T02:11:59.666Z,86.90
2023-04-18T02:13:52.523Z,87.19
2023-04-18T02:15:48.911Z,87.29
2023-04-18T02:17:41.956Z,87.06
2023-04-18T02:19:35.117Z,87.18
2023-04-18T02:21:30.422Z,87.31
2023-04-18T02:23:23.367Z,87.41
2023-04-18T02:25:16.430Z,87.55
2023-04-18T02:27:11.219Z,87.52
2023-04-18T02:29:04.261Z,87.53
2023-04-18T02:30:57.312Z,87.63
2023-04-18T02:32:54.283Z,87.75
2023-04-18T02:34:49.863Z,87.65
2023-04-18T02:36:43.116Z,87.71
2023-04-18T02:38:36.585Z,88.04
2023-04-18T02:40:29.448Z,88.02
2023-04-18T02:42:25.457Z,87.96
2023-04-18T02:44:18.393Z,88.08
2023-04-18T02:46:11.769Z,88.02
2023-04-18T02:48:05.226Z,88.05
2023-04-18T02:49:59.395Z,88.09
2023-04-18T02:51:57.763Z,88.15
2023-04-18T02:53:55.011Z,87.96
2023-04-18T02:55:48.164Z,88.20
2023-04-18T02:57:41.519Z,88.38
2023-04-18T02:59:53.205Z,88.35
2023-04-18T03:02:12.614Z,88.44
2023-04-18T03:04:10.745Z,88.40
2023-04-18T03:06:07.898Z,88.36
2023-04-18T03:08:01.558Z,88.48
2023-04-18T03:09:54.615Z,88.52
2023-04-18T03:11:53.907Z,88.39
2023-04-18T03:13:50.139Z,88.22
2023-04-18T03:15:43.316Z,88.34
2023-04-18T03:17:36.733Z,88.27
2023-04-18T03:19:32.256Z,88.34
2023-04-18T03:21:29.192Z,88.28
2023-04-18T03:23:23.071Z,88.42
2023-04-18T03:25:16.023Z,88.32
2023-04-18T03:27:13.364Z,88.34
2023-04-18T03:29:06.624Z,88.40
2023-04-18T03:31:00.096Z,88.30
2023-04-18T03:32:53.783Z,88.29
2023-04-18T03:34:46.688Z,88.37
2023-04-18T03:36:40.256Z,88.36
2023-04-18T03:38:33.246Z,88.36
2023-04-18T03:40:26.356Z,88.48
2023-04-18T03:42:21.352Z,88.38
2023-04-18T03:44:15.297Z,88.48
2023-04-18T03:46:08.395Z,88.31
2023-04-18T03:48:01.920Z,88.37
2023-04-18T03:49:56.111Z,88.28
2023-04-18T03:51:49.279Z,88.35
2023-04-18T03:53:42.319Z,88.40
2023-04-18T03:55:35.471Z,88.56
2023-04-18T03:57:29.141Z,88.62
2023-04-18T03:59:22.082Z,88.65
2023-04-18T04:01:16.914Z,88.82
2023-04-18T04:03:10.861Z,88.77
2023-04-18T04:05:05.657Z,89.20
2023-04-18T04:07:00.534Z,89.02
2023-04-18T04:08:53.593Z,89.11
2023-04-18T04:10:49.716Z,89.14
2023-04-18T04:12:43.378Z,89.14
2023-04-18T04:14:37.101Z,88.94
2023-04-18T04:16:30.542Z,88.89
2023-04-18T04:18:31.257Z,88.82
2023-04-18T04:20:26.755Z,89.00
2023-04-18T04:22:33.001Z,88.96
2023-04-18T04:24:25.945Z,88.78
2023-04-18T04:26:18.894Z,88.94
2023-04-18T04:28:22.881Z,88.73
2023-04-18T04:30:23.570Z,88.96
2023-04-18T04:32:17.092Z,89.07
2023-04-18T04:34:10.037Z,88.97
2023-04-18T04:36:03.805Z,89.02
2023-04-18T04:37:57.265Z,88.93
2023-04-18T04:40:01.071Z,88.96
2023-04-18T04:42:13.720Z,88.95
2023-04-18T04:44:17.844Z,88.86
2023-04-18T04:46:13.925Z,88.88
2023-04-18T04:48:09.203Z,88.84
2023-04-18T04:50:04.335Z,88.81
2023-04-18T04:51:58.648Z,88.69
2023-04-18T04:53:52.350Z,88.52
2023-04-18T04:55:45.811Z,88.50
2023-04-18T04:57:38.806Z,88.46
2023-04-18T04:59:41.350Z,88.35
2023-04-18T05:01:34.316Z,88.27
2023-04-18T05:03:28.940Z,88.44
2023-04-18T05:05:23.354Z,88.29
2023-04-18T05:07:16.200Z,88.16
2023-04-18T05:09:09.046Z,88.24
2023-04-18T05:11:02.199Z,88.31
2023-04-18T05:12:55.150Z,88.17
2023-04-18T05:14:48.018Z,88.28
2023-04-18T05:16:41.719Z,88.29
2023-04-18T05:18:37.555Z,88.19
2023-04-18T05:20:30.746Z,88.33
2023-04-18T05:22:23.577Z,88.35
2023-04-18T05:24:16.659Z,88.38
2023-04-18T05:26:09.778Z,88.47
2023-04-18T05:28:04.975Z,88.32
2023-04-18T05:29:58.181Z,88.50
2023-04-18T05:31:51.287Z,88.62
2023-04-18T05:33:44.238Z,88.67
2023-04-18T05:35:37.340Z,88.56
2023-04-18T05:37:30.236Z,88.54
2023-04-18T05:39:23.109Z,88.69
2023-04-18T05:41:15.965Z,88.66
2023-04-18T05:43:08.874Z,88.73
2023-04-18T05:45:01.928Z,88.64
2023-04-18T05:46:54.878Z,88.71
2023-04-18T05:48:47.720Z,88.88
2023-04-18T05:50:40.883Z,89.02
2023-04-18T05:52:35.051Z,88.51
2023-04-18T05:54:28.001Z,88.43
2023-04-18T05:56:21.254Z,88.72
2023-04-18T05:58:14.314Z,88.53
2023-04-18T06:00:11.422Z,88.37
2023-04-18T06:02:13.698Z,88.60
2023-04-18T06:04:07.690Z,88.27
2023-04-18T06:06:00.947Z,88.05
2023-04-18T06:07:53.891Z,87.83
2023-04-18T06:09:46.737Z,87.79
2023-04-18T06:11:39.685Z,87.57
2023-04-18T06:13:32.735Z,88.19
2023-04-18T06:15:25.895Z,87.74
2023-04-18T06:17:19.286Z,87.86
2023-04-18T06:19:12.120Z,87.17
2023-04-18T06:21:05.418Z,87.32
2023-04-18T06:22:58.315Z,87.11
2023-04-18T06:24:51.245Z,87.01
2023-04-18T06:26:44.196Z,86.64
2023-04-18T06:28:37.043Z,86.43
2023-04-18T06:30:30.077Z,85.76
2023-04-18T06:32:23.198Z,85.94
2023-04-18T06:34:17.015Z,85.73
2023-04-18T06:36:10.574Z,85.64
2023-04-18T06:38:03.939Z,85.54
2023-04-18T06:39:59.147Z,84.96
2023-04-18T06:41:52.141Z,84.98
2023-04-18T06:44:03.318Z,84.71
2023-04-18T06:45:59.509Z,84.93
2023-04-18T06:47:53.247Z,84.85
2023-04-18T06:49:46.220Z,84.27
2023-04-18T06:51:39.048Z,84.46
2023-04-18T06:53:31.895Z,84.24
2023-04-18T06:55:24.738Z,83.68
2023-04-18T06:57:17.988Z,84.10
2023-04-18T06:59:10.928Z,83.88
2023-04-18T07:01:04.608Z,83.94
2023-04-18T07:02:58.383Z,83.50
2023-04-18T07:04:52.002Z,83.52
2023-04-18T07:06:44.976Z,83.72
2023-04-18T07:08:38.268Z,83.45
2023-04-18T07:10:31.199Z,82.78
2023-04-18T07:12:24.546Z,82.95
2023-04-18T07:14:19.753Z,83.42
2023-04-18T07:16:12.792Z,82.96
2023-04-18T07:18:06.040Z,82.81
2023-04-18T07:19:59.611Z,82.85
2023-04-18T07:21:52.484Z,82.85
2023-04-18T07:23:45.419Z,83.21
2023-04-18T07:25:39.081Z,82.77
2023-04-18T07:27:34.796Z,83.00
2023-04-18T07:29:28.268Z,83.00
2023-04-18T07:31:21.541Z,82.72
2023-04-18T07:33:14.722Z,83.09
2023-04-18T07:35:10.680Z,82.62
2023-04-18T07:37:03.828Z,82.75
2023-04-18T07:38:57.998Z,82.37
2023-04-18T07:41:00.365Z,82.16
2023-04-18T07:42:53.638Z,82.32
2023-04-18T07:44:47.299Z,82.11
2023-04-18T07:46:41.442Z,82.04
2023-04-18T07:48:35.035Z,81.45
2023-04-18T07:50:28.083Z,81.21
2023-04-18T07:52:21.661Z,81.51
2023-04-18T07:54:14.593Z,80.95
2023-04-18T07:56:07.561Z,81.05
2023-04-18T07:58:00.794Z,80.90
2023-04-18T07:59:54.159Z,80.86
2023-04-18T08:01:47.123Z,80.63
2023-04-18T08:03:40.248Z,80.51
2023-04-18T08:05:33.562Z,80.62
2023-04-18T08:07:28.167Z,79.52
2023-04-18T08:09:28.590Z,80.11
2023-04-18T08:11:21.800Z,79.48
2023-04-18T08:13:15.028Z,79.29
2023-04-18T08:15:09.085Z,79.90
2023-04-18T08:17:02.704Z,79.44
2023-04-18T08:18:56.242Z,79.16
2023-04-18T08:20:53.136Z,78.95
2023-04-18T08:23:05.200Z,79.17
2023-04-18T08:25:05.367Z,78.77
2023-04-18T08:26:58.858Z,78.63
2023-04-18T08:28:52.189Z,77.89
2023-04-18T08:30:48.922Z,77.83
2023-04-18T08:32:41.918Z,77.69
2023-04-18T08:34:37.088Z,77.52
2023-04-18T08:36:30.042Z,77.82
2023-04-18T08:38:23.103Z,77.38
2023-04-18T08:40:17.079Z,77.18
2023-04-18T08:42:11.540Z,77.13
2023-04-18T08:44:06.406Z,76.95
2023-04-18T08:46:00.671Z,77.18
2023-04-18T08:47:53.845Z,77.06
2023-04-18T08:49:47.125Z,75.67
2023-04-18T08:51:40.276Z,75.41
2023-04-18T08:53:33.873Z,74.84
2023-04-18T08:55:27.197Z,74.38
2023-04-18T08:57:30.291Z,72.73
2023-04-18T08:59:43.795Z,71.33
2023-04-18T09:01:56.807Z,71.51
2023-04-18T09:03:51.351Z,70.20
2023-04-18T09:06:04.258Z,68.93
2023-04-18T09:07:57.402Z,68.48
2023-04-18T09:09:53.389Z,68.93
2023-04-18T09:11:46.351Z,69.03
2023-04-18T09:13:39.948Z,67.98
2023-04-18T09:15:33.072Z,68.03
2023-04-18T09:17:43.876Z,67.65
2023-04-18T09:19:36.985Z,66.05
2023-04-18T09:21:29.833Z,65.71
2023-04-18T09:23:24.736Z,66.09
2023-04-18T09:25:39.809Z,66.86
2023-04-18T09:27:35.206Z,66.33
2023-04-18T09:29:47.285Z,66.77
2023-04-18T09:32:01.540Z,65.94
2023-04-18T09:33:56.923Z,66.32
2023-04-18T09:35:50.013Z,66.86
2023-04-18T09:37:51.453Z,67.10
2023-04-18T09:39:44.930Z,67.57
2023-04-18T09:41:37.861Z,67.85
2023-04-18T09:43:30.704Z,68.73
2023-04-18T09:45:24.895Z,68.64
2023-04-18T09:47:17.728Z,68.70
2023-04-18T09:49:11.496Z,69.19
2023-04-18T09:51:08.029Z,68.82
2023-04-18T09:53:01.796Z,68.97
2023-04-18T09:55:00.008Z,68.62
2023-04-18T09:56:54.345Z,69.28
2023-04-18T09:58:49.060Z,68.31
2023-04-18T10:00:42.742Z,68.26
2023-04-18T10:03:03.056Z,68.69
2023-04-18T10:04:56.242Z,69.20
2023-04-18T10:06:49.399Z,69.99
2023-04-18T10:08:44.703Z,69.92
2023-04-18T10:10:38.938Z,69.85
2023-04-18T10:12:33.567Z,69.82
2023-04-18T10:14:28.029Z,70.14
2023-04-18T10:16:21.919Z,70.23
2023-04-18T10:18:16.729Z,70.39
2023-04-18T10:20:16.620Z,69.69
2023-04-18T10:22:10.042Z,69.57
2023-04-18T10:24:03.561Z,69.78
2023-04-18T10:25:56.897Z,69.17
2023-04-18T10:27:49.648Z,69.04
2023-04-18T10:29:54.674Z,68.85
2023-04-18T10:31:48.110Z,68.39
2023-04-18T10:35:59.021Z,68.59
2023-04-18T10:37:52.576Z,68.85
2023-04-18T10:39:58.509Z,68.31
2023-04-18T10:41:51.874Z,68.48
2023-04-18T10:44:08.025Z,68.56
2023-04-18T10:46:23.932Z,69.28
2023-04-18T10:48:26.133Z,70.03
2023-04-18T10:50:22.258Z,69.86
2023-04-18T10:52:15.822Z,69.50
2023-04-18T10:54:13.473Z,69.36
2023-04-18T10:56:10.396Z,70.12
2023-04-18T10:58:03.674Z,69.43
2023-04-18T10:59:57.135Z,69.75
2023-04-18T11:01:55.753Z,68.91
2023-04-18T11:03:48.706Z,68.92
2023-04-18T11:05:41.955Z,69.57
2023-04-18T11:07:46.613Z,69.38
2023-04-18T11:09:39.492Z,69.50
2023-04-18T11:11:32.335Z,70.21
2023-04-18T11:13:25.493Z,70.15
2023-04-18T11:15:22.397Z,69.82
2023-04-18T11:17:20.218Z,69.76
2023-04-18T11:19:21.450Z,69.58
2023-04-18T11:21:14.384Z,69.60
2023-04-18T11:23:17.472Z,69.35
2023-04-18T11:25:11.133Z,69.48
2023-04-18T11:27:04.700Z,69.21
2023-04-18T11:28:58.566Z,68.74
2023-04-18T11:30:51.375Z,68.43
2023-04-18T11:32:44.487Z,68.95
2023-04-18T11:34:37.417Z,68.92
2023-04-18T11:36:35.190Z,69.51
2023-04-18T11:38:30.853Z,69.16
2023-04-18T11:40:23.940Z,69.12
2023-04-18T11:42:16.985Z,69.15
2023-04-18T11:44:09.861Z,68.64
2023-04-18T11:46:02.819Z,68.56
2023-04-18T11:47:58.357Z,69.08
2023-04-18T11:49:58.565Z,68.43
2023-04-18T11:51:51.454Z,67.86
2023-04-18T11:53:44.732Z,67.10
2023-04-18T11:55:37.863Z,67.03
2023-04-18T11:57:32.252Z,67.51
2023-04-18T11:59:25.087Z,68.10
2023-04-18T12:01:25.712Z,68.68
2023-04-18T12:03:22.746Z,68.26
2023-04-18T12:05:37.132Z,67.86
2023-04-18T12:07:38.554Z,67.34
2023-04-18T12:09:31.404Z,67.16
2023-04-18T12:11:24.250Z,66.95
2023-04-18T12:13:17.939Z,67.01
2023-04-18T12:15:16.354Z,67.03
2023-04-18T12:17:09.237Z,67.07
2023-04-18T12:19:02.194Z,66.46
2023-04-18T12:20:55.055Z,66.39
2023-04-18T12:22:49.874Z,66.21
2023-04-18T12:24:43.612Z,65.94
2023-04-18T12:26:45.857Z,66.21
2023-04-18T12:28:38.706Z,66.64
2023-04-18T12:30:37.348Z,65.49
2023-04-18T12:32:30.872Z,65.34
2023-04-18T12:34:23.898Z,65.20
2023-04-18T12:36:16.840Z,65.13
2023-04-18T12:38:09.684Z,65.30
2023-04-18T12:40:02.600Z,64.58
2023-04-18T12:41:55.490Z,64.46
2023-04-18T12:43:48.331Z,65.39
2023-04-18T12:45:41.290Z,65.24
2023-04-18T12:47:35.677Z,65.17
2023-04-18T12:49:28.604Z,64.51
2023-04-18T12:51:22.078Z,64.19
2023-04-18T12:53:15.007Z,63.99
2023-04-18T12:55:08.988Z,64.01
2023-04-18T12:57:01.840Z,64.46
2023-04-18T12:58:54.788Z,64.10
2023-04-18T13:00:47.658Z,63.87
2023-04-18T13:02:43.825Z,63.92
2023-04-18T13:04:37.181Z,63.68
2023-04-18T13:06:30.989Z,63.21
2023-04-18T13:08:23.817Z,62.93
2023-04-18T13:10:19.423Z,63.22
2023-04-18T13:12:12.807Z,63.06
2023-04-18T13:14:05.744Z,63.03
2023-04-18T13:15:58.777Z,61.95
2023-04-18T13:17:51.756Z,62.52
2023-04-18T13:19:44.693Z,62.38
2023-04-18T13:21:38.384Z,62.17
2023-04-18T13:23:31.820Z,61.95
2023-04-18T13:25:26.603Z,62.06
2023-04-18T13:27:20.908Z,62.39
2023-04-18T13:29:14.885Z,62.45
2023-04-18T13:31:09.087Z,62.62
2023-04-18T13:33:03.172Z,62.84
2023-04-18T13:34:57.177Z,62.56
2023-04-18T13:36:50.434Z,62.99
2023-04-18T13:38:45.014Z,62.26
2023-04-18T13:40:39.107Z,61.41
2023-04-18T13:42:38.787Z,62.17
2023-04-18T13:44:32.830Z,62.44
2023-04-18T13:46:30.184Z,62.91
2023-04-18T13:48:24.461Z,63.02
2023-04-18T13:50:19.866Z,63.33
2023-04-18T13:52:14.313Z,62.09
2023-04-18T13:54:09.081Z,61.24
2023-04-18T13:56:04.358Z,61.47
2023-04-18T13:57:58.495Z,61.21
2023-04-18T13:59:52.653Z,61.74
2023-04-18T14:01:46.894Z,62.22
2023-04-18T14:03:43.738Z,61.55
2023-04-18T14:05:38.101Z,61.95
2023-04-18T14:07:31.657Z,62.28
2023-04-18T14:09:27.370Z,62.46
2023-04-18T14:11:21.824Z,62.10
2023-04-18T14:13:15.418Z,62.42
2023-04-18T14:15:09.906Z,62.36
2023-04-18T14:17:03.255Z,62.48
2023-04-18T14:18:57.509Z,62.27
2023-04-18T14:20:52.321Z,62.41
2023-04-18T14:22:46.904Z,62.61
2023-04-18T14:24:40.770Z,62.70
2023-04-18T14:26:34.142Z,62.87
2023-04-18T14:28:27.324Z,63.11
2023-04-18T14:30:20.534Z,63.37
2023-04-18T14:32:13.782Z,62.97
2023-04-18T14:34:08.454Z,62.89
2023-04-18T14:36:07.259Z,63.07
2023-04-18T14:38:02.323Z,62.92
2023-04-18T14:39:55.272Z,62.52
2023-04-18T14:41:53.997Z,62.04
2023-04-18T14:43:55.911Z,62.51
2023-04-18T14:46:03.002Z,62.15
2023-04-18T14:48:10.199Z,62.19
2023-04-18T14:50:19.016Z,61.76
2023-04-18T14:52:20.547Z,61.19
2023-04-18T14:54:25.857Z,61.94
2023-04-18T14:56:33.164Z,61.69
2023-04-18T14:58:39.595Z,61.52
2023-04-18T15:00:49.350Z,61.30
2023-04-18T15:02:52.203Z,61.32
2023-04-18T15:05:00.966Z,61.22
2023-04-18T15:07:09.087Z,61.39
2023-04-18T15:09:18.147Z,60.88
2023-04-18T15:11:15.974Z,60.81
2023-04-18T15:13:09.737Z,60.49
2023-04-18T15:15:02.694Z,60.40
2023-04-18T15:16:56.199Z,60.16
2023-04-18T15:18:49.196Z,59.76
2023-04-18T15:20:42.042Z,59.88
2023-04-18T15:22:36.321Z,60.19
2023-04-18T15:24:29.476Z,60.19
2023-04-18T15:26:22.298Z,60.20
2023-04-18T15:28:16.289Z,60.82
2023-04-18T15:30:12.133Z,60.96
2023-04-18T15:32:05.690Z,60.27
2023-04-18T15:33:58.717Z,60.09
2023-04-18T15:35:52.442Z,60.65
2023-04-18T15:37:48.569Z,61.05
2023-04-18T15:39:47.613Z,60.84
2023-04-18T15:41:42.185Z,61.08
2023-04-18T15:43:35.244Z,61.03
2023-04-18T15:45:28.190Z,61.03
2023-04-18T15:47:21.238Z,60.36
2023-04-18T15:49:14.390Z,60.28
2023-04-18T15:51:07.752Z,60.59
2023-04-18T15:53:00.806Z,61.14
2023-04-18T15:54:54.051Z,61.16
2023-04-18T15:56:46.902Z,61.41
2023-04-18T15:58:39.739Z,61.26
2023-04-18T16:00:32.895Z,61.63
2023-04-18T16:02:26.780Z,61.43
2023-04-18T16:04:19.887Z,60.83
2023-04-18T16:06:14.614Z,60.65
2023-04-18T16:08:09.002Z,60.84
2023-04-18T16:10:05.206Z,61.34
2023-04-18T16:11:58.033Z,61.24
2023-04-18T16:13:50.977Z,61.47
2023-04-18T16:15:43.883Z,61.93
2023-04-18T16:17:37.761Z,62.19
2023-04-18T16:19:31.291Z,62.66
2023-04-18T16:21:24.131Z,62.66
2023-04-18T16:23:17.079Z,62.47
2023-04-18T16:25:10.073Z,62.52
2023-04-18T16:27:02.903Z,62.51
2023-04-18T16:28:57.123Z,62.42
2023-04-18T16:30:50.024Z,62.08
2023-04-18T16:32:43.585Z,62.30
2023-04-18T16:34:37.016Z,62.59
2023-04-18T16:36:34.267Z,62.50
2023-04-18T16:38:27.536Z,62.96
2023-04-18T16:40:20.779Z,62.56
2023-04-18T16:42:15.461Z,62.50
2023-04-18T16:44:09.132Z,62.73
2023-04-18T16:46:02.803Z,62.91
2023-04-18T16:47:55.673Z,62.69
2023-04-18T16:49:48.798Z,63.07
2023-04-18T16:51:41.748Z,63.47
2023-04-18T16:53:40.346Z,63.64
2023-04-18T16:55:37.035Z,63.95
2023-04-18T16:57:29.997Z,63.88
2023-04-18T16:59:22.862Z,63.39
2023-04-18T17:01:16.199Z,63.53
2023-04-18T17:03:10.480Z,63.63
2023-04-18T17:05:03.885Z,63.81
2023-04-18T17:06:57.110Z,63.76
2023-04-18T17:08:50.361Z,64.12
2023-04-18T17:10:50.238Z,63.97
2023-04-18T17:12:49.310Z,64.14
2023-04-18T17:14:42.088Z,64.46
2023-04-18T17:16:38.047Z,64.23
2023-04-18T17:18:36.917Z,64.35
2023-04-18T17:20:39.872Z,64.63
2023-04-18T17:22:37.673Z,64.69
2023-04-18T17:24:30.709Z,64.71
2023-04-18T17:26:25.802Z,64.54
2023-04-18T17:28:19.041Z,64.48
2023-04-18T17:30:12.326Z,64.75
2023-04-18T17:32:05.820Z,64.87
2023-04-18T17:33:59.661Z,64.87
2023-04-18T17:35:52.698Z,64.64
2023-04-18T17:37:46.945Z,64.65
2023-04-18T17:39:40.742Z,64.93
2023-04-18T17:41:38.398Z,64.75
2023-04-18T17:43:31.360Z,64.98
2023-04-18T17:45:25.759Z,64.52
2023-04-18T17:47:18.606Z,64.31
2023-04-18T17:49:12.410Z,64.17
2023-04-18T17:51:06.213Z,64.08
2023-04-18T17:52:59.468Z,64.01
2023-04-18T17:54:52.432Z,64.28
2023-04-18T17:56:45.783Z,64.38
2023-04-18T17:58:39.951Z,64.32
2023-04-18T18:00:32.802Z,64.93
2023-04-18T18:02:26.015Z,65.19
2023-04-18T18:04:20.096Z,65.54
2023-04-18T18:06:14.409Z,65.51
2023-04-18T18:08:07.523Z,65.68
2023-04-18T18:10:01.336Z,65.56
2023-04-18T18:11:55.899Z,65.72
2023-04-18T18:13:51.837Z,65.97
2023-04-18T18:15:45.192Z,66.34
2023-04-18T18:17:52.623Z,66.11
2023-04-18T18:19:45.836Z,66.13
2023-04-18T18:21:39.088Z,65.98
2023-04-18T18:23:37.740Z,66.22
2023-04-18T18:25:31.240Z,66.42
2023-04-18T18:27:24.182Z,66.41
2023-04-18T18:29:17.201Z,66.46
2023-04-18T18:31:10.145Z,66.44
2023-04-18T18:33:04.048Z,66.74
2023-04-18T18:34:56.994Z,66.72
2023-04-18T18:36:50.664Z,67.00
2023-04-18T18:38:43.535Z,66.65
2023-04-18T18:40:39.436Z,66.50
2023-04-18T18:42:39.749Z,66.31
2023-04-18T18:44:38.025Z,66.44
2023-04-18T18:46:31.320Z,66.55
2023-04-18T18:48:24.850Z,66.51
2023-04-18T18:50:18.222Z,66.95
2023-04-18T18:52:11.366Z,66.83
2023-04-18T18:54:04.603Z,66.98
2023-04-18T18:55:57.855Z,67.06
2023-04-18T18:57:51.315Z,67.15
2023-04-18T18:59:44.468Z,67.35
2023-04-18T19:01:37.693Z,67.49
2023-04-18T19:03:31.268Z,67.44
2023-04-18T19:05:24.539Z,67.45
2023-04-18T19:07:17.697Z,67.43
2023-04-18T19:09:10.856Z,67.82
2023-04-18T19:11:04.526Z,68.00
2023-04-18T19:12:57.770Z,67.94
2023-04-18T19:14:50.617Z,68.30
2023-04-18T19:16:43.492Z,68.50
2023-04-18T19:18:37.024Z,68.51
2023-04-18T19:20:29.973Z,68.82
2023-04-18T19:22:22.819Z,68.88
2023-04-18T19:24:15.872Z,68.64
2023-04-18T19:26:09.469Z,68.87
2023-04-18T19:28:02.493Z,68.82
2023-04-18T19:29:55.328Z,69.13
2023-04-18T19:31:48.214Z,68.90
2023-04-18T19:33:41.055Z,68.89
2023-04-18T19:35:35.319Z,68.92
2023-04-18T19:37:30.806Z,68.80
2023-04-18T19:39:23.759Z,69.02
2023-04-18T19:41:16.752Z,69.24
2023-04-18T19:43:09.679Z,69.41
2023-04-18T19:45:03.236Z,69.36
2023-04-18T19:46:56.370Z,69.51
2023-04-18T19:48:49.354Z,69.43
2023-04-18T19:50:42.464Z,69.47
2023-04-18T19:52:35.634Z,69.71
2023-04-18T19:54:28.501Z,69.69
2023-04-18T19:56:21.788Z,69.65
2023-04-18T19:58:45.302Z,69.76
2023-04-18T20:00:38.438Z,69.88
2023-04-18T20:02:31.386Z,70.12
2023-04-18T20:04:26.140Z,70.25
2023-04-18T20:06:19.131Z,70.30
2023-04-18T20:08:11.981Z,70.58
2023-04-18T20:10:05.942Z,70.84
2023-04-18T20:12:00.667Z,71.15
2023-04-18T20:13:55.835Z,71.31
2023-04-18T20:15:49.371Z,71.27
2023-04-18T20:17:42.789Z,71.55
2023-04-18T20:19:36.443Z,71.29
2023-04-18T20:21:29.468Z,71.32
2023-04-18T20:23:22.314Z,71.27
2023-04-18T20:25:15.372Z,71.40
2023-04-18T20:27:08.414Z,71.33
2023-04-18T20:29:02.186Z,71.53
2023-04-18T20:30:55.988Z,71.67
2023-04-18T20:32:49.009Z,71.95
2023-04-18T20:34:41.956Z,71.88
2023-04-18T20:36:35.619Z,71.87
2023-04-18T20:38:29.815Z,71.96
2023-04-18T20:40:22.943Z,71.89
2023-04-18T20:42:15.916Z,71.94
2023-04-18T20:44:10.117Z,72.14
2023-04-18T20:46:03.065Z,72.05
2023-04-18T20:47:56.849Z,72.27
2023-04-18T20:49:49.834Z,72.37
2023-04-18T20:51:42.685Z,72.33
2023-04-18T20:53:35.731Z,72.06
2023-04-18T20:55:28.790Z,72.18
2023-04-18T20:57:21.843Z,72.03
2023-04-18T20:59:14.733Z,71.83
2023-04-18T21:01:07.634Z,71.93
2023-04-18T21:03:00.943Z,71.82
2023-04-18T21:04:54.240Z,71.75
2023-04-18T21:06:47.268Z,71.73
2023-04-18T21:08:40.142Z,71.53
2023-04-18T21:10:33.084Z,71.79
2023-04-18T21:12:27.461Z,71.91
2023-04-18T21:14:20.517Z,71.92
2023-04-18T21:16:13.458Z,72.12
2023-04-18T21:18:06.476Z,72.12
2023-04-18T21:20:06.089Z,72.08
2023-04-18T21:22:13.650Z,72.04
2023-04-18T21:24:08.342Z,71.56
2023-04-18T21:26:01.142Z,70.34
2023-04-18T21:27:54.297Z,69.23
2023-04-18T21:29:48.199Z,69.45
2023-04-18T21:31:41.082Z,68.76
2023-04-18T21:33:34.061Z,68.20
2023-04-18T21:35:26.908Z,67.87
2023-04-18T21:37:19.754Z,67.56
2023-04-18T21:39:12.603Z,67.47
2023-04-18T21:41:09.141Z,67.45
2023-04-18T21:43:04.842Z,67.03
2023-04-18T21:44:59.024Z,67.43
2023-04-18T21:46:51.844Z,65.48
2023-04-18T21:48:47.248Z,62.81
2023-04-18T21:50:43.197Z,62.10
2023-04-18T21:52:37.267Z,61.49
2023-04-18T21:54:30.117Z,59.24
2023-04-18T21:56:23.264Z,58.99
2023-04-18T21:58:17.343Z,59.49
2023-04-18T22:00:11.524Z,58.80
2023-04-18T22:02:06.496Z,59.03
2023-04-18T22:03:59.828Z,59.13
2023-04-18T22:05:53.713Z,59.98
2023-04-18T22:07:57.858Z,60.70
2023-04-18T22:10:00.550Z,61.57
2023-04-18T22:11:57.168Z,62.74
2023-04-18T22:13:54.310Z,63.83
2023-04-18T22:15:47.253Z,65.55
2023-04-18T22:17:41.884Z,67.27
2023-04-18T22:19:36.797Z,68.24
2023-04-18T22:21:30.054Z,69.65
2023-04-18T22:23:23.547Z,69.86
2023-04-18T22:25:17.530Z,70.06
2023-04-18T22:27:10.385Z,70.20
2023-04-18T22:29:03.322Z,70.33
2023-04-18T22:30:56.297Z,69.59
2023-04-18T22:32:49.358Z,68.71
2023-04-18T22:34:42.470Z,68.62
2023-04-18T22:36:35.421Z,68.19
2023-04-18T22:38:28.370Z,68.02
2023-04-18T22:40:21.720Z,65.69
2023-04-18T22:42:14.573Z,63.04
2023-04-18T22:44:07.420Z,61.59
2023-04-18T22:46:00.808Z,61.17
2023-04-18T22:47:53.813Z,60.75
2023-04-18T22:49:47.391Z,60.08
2023-04-18T22:51:40.233Z,59.36
2023-04-18T22:53:33.085Z,58.34
2023-04-18T22:55:25.928Z,57.75
2023-04-18T22:57:18.773Z,57.28
2023-04-18T22:59:11.614Z,58.26
2023-04-18T23:01:04.601Z,58.38
2023-04-18T23:02:57.789Z,56.79
2023-04-18T23:04:51.143Z,56.33
2023-04-18T23:06:44.548Z,56.09
2023-04-18T23:08:37.381Z,56.69
2023-04-18T23:10:30.435Z,56.18
2023-04-18T23:12:23.382Z,56.12
2023-04-18T23:14:16.359Z,56.09
2023-04-18T23:16:09.433Z,55.90
2023-04-18T23:18:02.396Z,55.56
2023-04-18T23:19:55.488Z,56.52
2023-04-18T23:21:49.715Z,56.29
2023-04-18T23:23:42.922Z,57.02
2023-04-18T23:25:35.868Z,57.02
2023-04-18T23:27:28.709Z,57.59
2023-04-18T23:29:22.228Z,57.78
2023-04-18T23:31:15.761Z,57.78
2023-04-18T23:33:09.055Z,58.26
2023-04-18T23:35:04.414Z,58.40
2023-04-18T23:36:57.343Z,57.99
2023-04-18T23:38:50.185Z,58.49
2023-04-18T23:40:43.138Z,58.37
2023-04-18T23:42:36.396Z,57.87
2023-04-18T23:44:29.238Z,57.90
2023-04-18T23:46:22.141Z,57.03
2023-04-18T23:48:15.132Z,57.23
2023-04-18T23:50:08.650Z,57.05
2023-04-18T23:52:01.549Z,57.10
2023-04-18T23:53:54.493Z,57.47
2023-04-18T23:55:50.102Z,56.53
2023-04-18T23:57:44.481Z,56.42
2023-04-18T23:59:37.426Z,55.78
